Latest Weather Observations for Murganella Airstrip

IDD60801

Issued at 7:35 pm CST Monday 28 July 2014 (issued every 30 minutes, with the page automatically refreshed every 10 minutes)

About weather observations | Map of weather stations | Latest weather observations for NT | Other Formats
Station Details ID: 014309 Name: MURGANELLA AIRSTRIP Lat: -11.55 Lon: 132.93 Height: 9.5 m
Data from the previous 72 hours. | See also: Recent months for locations in Northern Territory
Date/Time
CST
Temp
°C
App
Temp
°C
Dew
Point
Rel
Hum
%
Delta-T
°C
Wind Press
QNH
hPa
Press
MSL
hPa
Rain
since 9 am
mm
Dir
 
Spd
km/h
Gust
km/h
Spd
kts
Gust
kts
28/07:30pm 24.7 - - - - ENE 6 11 3 6 1014.1 1014.1 0.0
28/07:00pm 25.0 - - - - ENE 7 13 4 7 1013.8 - 0.0
28/06:30pm 25.4 - - - - NE 6 11 3 6 1013.4 1013.4 0.0
28/06:00pm 26.3 - - - - ENE 11 17 6 9 1013.1 1013.1 0.0
28/05:30pm 26.8 - - - - ENE 7 15 4 8 1012.8 1012.8 0.0
28/05:00pm 26.9 - - - - NE 11 19 6 10 1012.5 - 0.0
28/04:30pm 26.9 - - - - ENE 15 24 8 13 1012.2 1012.2 0.0
28/04:00pm 27.6 - - - - ENE 13 28 7 15 1012.3 - 0.0
28/03:30pm 28.8 - - - - ENE 17 28 9 15 1012.3 1012.3 0.0
28/03:00pm 27.9 - - - - ENE 19 32 10 17 1012.8 1012.8 0.0
28/02:30pm 28.3 - - - - ENE 17 33 9 18 1013.3 1013.3 0.0
28/02:00pm 28.4 - - - - ENE 15 30 8 16 1013.6 - 0.0
28/01:30pm 27.9 - - - - E 15 30 8 16 1014.0 1014.0 0.0
28/01:00pm 28.3 - - - - E 19 32 10 17 1014.4 - 0.0
28/12:30pm 29.4 - - - - E 15 30 8 16 1014.9 1014.9 0.0
28/12:00pm 28.4 - - - - E 17 30 9 16 1015.4 1015.4 0.0
28/11:30am 28.0 - - - - E 17 26 9 14 1016.0 1016.0 0.0
28/11:00am 27.4 - - - - E 15 28 8 15 1016.2 - 0.0
28/10:30am 26.7 - - - - E 17 30 9 16 1016.3 1016.3 0.0
28/10:00am 25.7 - - - - E 15 28 8 15 1016.5 - 0.0
28/09:30am 25.8 - - - - ESE 9 19 5 10 1016.5 1016.5 0.0
28/09:00am 25.0 - - - - E 11 22 6 12 1016.3 1016.3 0.0
28/08:30am 23.6 - - - - ESE 9 17 5 9 1016.2 1016.2 0.0
28/08:00am 21.5 - - - - ESE 6 9 3 5 1016.1 - 0.0
28/07:30am 17.7 - - - - CALM 0 0 0 0 1015.9 1015.9 0.0
28/07:00am 16.9 - - - - CALM 0 0 0 0 1015.7 - 0.0
28/06:30am 17.3 - - - - CALM 0 0 0 0 1015.4 1015.4 0.0
28/06:00am 17.9 - - - - SSE 0 0 0 0 1015.1 1015.1 0.0
28/05:30am 18.4 - - - - CALM 0 0 0 0 1014.8 1014.8 0.0
28/05:00am 19.4 - - - - CALM 0 0 0 0 1014.7 - 0.0
28/04:30am 20.9 - - - - E 2 6 1 3 1014.6 1014.6 0.0
28/04:00am 21.6 - - - - ESE 6 7 3 4 1014.6 - 0.0
28/03:30am 21.4 - - - - E 6 7 3 4 1014.6 1014.6 0.0
28/03:00am 21.2 - - - - E 6 9 3 5 1014.9 1014.9 0.0
28/02:30am 19.0 - - - - CALM 0 2 0 1 1015.1 1015.1 0.0
28/02:00am 19.3 - - - - CALM 0 0 0 0 1015.3 - 0.0
28/01:30am 19.4 - - - - CALM 0 0 0 0 1015.5 1015.5 0.0
28/01:00am 19.7 - - - - CALM 0 0 0 0 1015.8 - 0.0
28/12:30am 20.1 - - - - CALM 0 0 0 0 1015.9 1015.9 0.0
28/12:00am 20.4 - - - - ENE 0 0 0 0 1015.9 1015.9 0.0
 
Date/Time
CST
Temp
°C
App
Temp
°C
Dew
Point
Rel
Hum
%
Delta-T
°C
Wind Press
QNH
hPa
Press
MSL
hPa
Rain
since 9 am
mm
Dir
 
Spd
km/h
Gust
km/h
Spd
kts
Gust
kts
27/11:30pm 20.8 - - - - CALM 0 0 0 0 1015.9 1015.9 0.0
27/11:00pm 21.0 - - - - CALM 0 0 0 0 1015.9 - 0.0
27/10:30pm 21.2 - - - - CALM 0 0 0 0 1015.9 1015.9 0.0
27/10:00pm 21.9 - - - - CALM 0 0 0 0 1015.7 - 0.0
27/09:30pm 22.2 - - - - CALM 0 0 0 0 1015.5 1015.5 0.0
27/09:00pm 22.6 - - - - CALM 0 0 0 0 1015.3 1015.3 0.0
27/08:30pm 23.4 - - - - CALM 0 2 0 1 1015.1 1015.1 0.0
27/08:00pm 24.0 - - - - ENE 2 6 1 3 1014.6 - 0.0
27/07:30pm 24.4 - - - - ENE 4 9 2 5 1014.3 1014.3 0.0
27/07:00pm 24.9 - - - - ENE 6 9 3 5 1013.9 - 0.0
27/06:30pm 25.8 - - - - ENE 6 9 3 5 1013.6 1013.6 0.0
27/06:00pm 27.0 - - - - ENE 9 19 5 10 1013.3 1013.3 0.0
27/05:30pm 27.7 - - - - ENE 9 17 5 9 1013.1 1013.1 0.0
27/05:00pm 28.4 - - - - ENE 11 19 6 10 1012.9 - 0.0
27/04:30pm 29.3 - - - - ENE 13 22 7 12 1012.9 1012.9 0.0
27/04:00pm 29.9 - - - - ENE 13 28 7 15 1013.0 - 0.0
27/03:30pm 29.8 - - - - E 15 28 8 15 1013.1 1013.1 0.0
27/03:00pm 29.4 - - - - E 17 32 9 17 1013.3 1013.3 0.0
27/02:30pm 29.6 - - - - ENE 17 32 9 17 1013.6 1013.6 0.0
27/02:00pm 29.4 - - - - E 19 33 10 18 1014.0 - 0.0
27/01:30pm 28.9 - - - - E 20 30 11 16 1014.6 1014.6 0.0
27/01:00pm 28.7 - - - - E 22 37 12 20 1015.0 - 0.0
27/12:30pm 28.6 - - - - E 15 30 8 16 1015.6 1015.6 0.0
27/12:00pm 28.3 - - - - ENE 20 35 11 19 1016.1 1016.1 0.0
27/11:30am 27.9 - - - - E 20 32 11 17 1016.5 1016.5 0.0
27/11:00am 27.0 - - - - E 19 30 10 16 1017.0 - 0.0
27/10:30am 27.5 - - - - E 13 28 7 15 1017.3 1017.3 0.0
27/10:00am 26.8 - - - - E 15 28 8 15 1017.3 - 0.0
27/09:30am 26.3 - - - - E 17 30 9 16 1017.3 1017.3 0.0
27/09:00am 25.4 - - - - E 13 26 7 14 1017.2 1017.2 -
27/08:30am 23.4 - - - - SE 4 7 2 4 1017.0 1017.0 -
27/08:00am 20.8 - - - - CALM 0 0 0 0 1016.8 - -
27/07:30am 17.6 - - - - CALM 0 0 0 0 1016.6 1016.6 -
27/07:00am 17.0 - - - - CALM 0 0 0 0 1016.3 - -
27/06:30am 17.2 - - - - CALM 0 0 0 0 1016.0 1016.0 -
27/06:00am 17.7 - - - - CALM 0 0 0 0 1015.8 1015.8 -
27/05:30am 17.8 - - - - CALM 0 0 0 0 1015.8 1015.8 -
27/05:00am 18.1 - - - - CALM 0 0 0 0 1015.6 - -
27/04:30am 18.7 - - - - CALM 0 0 0 0 1015.5 1015.5 -
27/04:00am 19.0 - - - - CALM 0 0 0 0 1015.4 - -
27/03:30am 19.8 - - - - CALM 0 0 0 0 1015.4 1015.4 -
27/03:00am 20.3 - - - - SSE 2 4 1 2 1015.6 1015.6 -
27/02:30am 21.0 - - - - SE 4 4 2 2 1015.8 1015.8 -
27/02:00am 22.0 - - - - SE 2 4 1 2 1016.1 - -
27/01:30am 22.7 - - - - SE 4 6 2 3 1016.4 1016.4 -
27/01:00am 23.4 - - - - ESE 6 7 3 4 1016.6 - -
27/12:30am 23.9 - - - - ESE 7 13 4 7 1016.9 1016.9 0.0
27/12:00am 24.1 - - - - E 6 15 3 8 1017.0 1017.0 0.0
 
Date/Time
CST
Temp
°C
App
Temp
°C
Dew
Point
Rel
Hum
%
Delta-T
°C
Wind Press
QNH
hPa
Press
MSL
hPa
Rain
since 9 am
mm
Dir
 
Spd
km/h
Gust
km/h
Spd
kts
Gust
kts
26/11:30pm 24.4 - - - - E 9 17 5 9 1017.1 1017.1 0.0
26/11:00pm 24.0 - - - - E 7 15 4 8 1017.2 - 0.0
26/10:30pm 23.8 - - - - E 6 9 3 5 1017.2 1017.2 0.0
26/10:00pm 23.6 - - - - ENE 6 7 3 4 1017.2 - 0.0
26/09:30pm 23.4 - - - - E 4 7 2 4 1017.0 1017.0 0.0
26/09:00pm 23.2 - - - - E 6 9 3 5 1016.9 1016.9 0.0
26/08:30pm 22.8 - - - - ENE 4 6 2 3 1016.6 1016.6 0.0
26/08:00pm 22.8 - - - - ENE 2 4 1 2 1016.3 - 0.0
26/07:30pm 23.3 - - - - NE 2 4 1 2 1016.1 1016.1 0.0
26/07:00pm 23.9 - - - - NE 4 7 2 4 1015.7 - 0.0
26/06:30pm 24.7 - - - - NE 7 13 4 7 1015.3 1015.3 0.0
26/06:00pm 25.7 - - - - NE 9 17 5 9 1015.2 1015.2 0.0
26/05:30pm 26.6 - - - - NE 11 17 6 9 1015.0 1015.0 0.0
26/05:00pm 27.0 - - - - NE 11 19 6 10 1014.9 - 0.0
26/04:30pm 27.3 - - - - NE 15 26 8 14 1014.8 1014.8 0.0
26/04:00pm 27.6 - - - - ENE 13 26 7 14 1014.6 - 0.0
26/03:30pm 28.0 - - - - ENE 15 30 8 16 1014.5 1014.5 0.0
26/03:00pm 27.8 - - - - ENE 15 22 8 12 1014.4 1014.4 0.0
26/02:30pm 28.0 - - - - ENE 13 22 7 12 1014.6 1014.6 0.0
26/02:00pm 27.8 - - - - E 13 22 7 12 1014.9 - 0.0
26/01:30pm 28.1 - - - - E 11 26 6 14 1015.3 1015.3 0.0
26/01:00pm 27.8 - - - - ENE 15 26 8 14 1015.7 - 0.0
26/12:30pm 28.0 - - - - ENE 13 22 7 12 1016.1 1016.1 0.0
26/12:00pm 27.2 - - - - E 13 22 7 12 1016.5 1016.5 0.0
26/11:30am 26.3 - - - - ESE 15 22 8 12 1017.0 1017.0 0.0
26/11:00am 26.8 - - - - E 13 24 7 13 1017.3 - 0.0
26/10:30am 26.7 - - - - E 11 19 6 10 1017.2 1017.2 0.0
26/10:00am 26.3 - - - - ESE 9 17 5 9 1017.2 - 0.0
26/09:30am 25.6 - - - - ESE 9 17 5 9 1017.2 1017.2 0.0
26/09:00am 24.4 - - - - E 7 22 4 12 1017.3 1017.3 0.0
26/08:30am 22.4 - - - - ESE 2 7 1 4 1017.1 1017.1 0.0
26/08:00am 20.5 - - - - CALM 0 0 0 0 1017.1 - 0.0
26/07:30am 18.2 - - - - CALM 0 0 0 0 1017.0 1017.0 0.0
26/07:00am 17.8 - - - - CALM 0 0 0 0 1016.7 - 0.0
26/06:30am 18.2 - - - - CALM 0 0 0 0 1016.6 1016.6 0.0
26/06:00am 18.7 - - - - CALM 0 0 0 0 1016.4 1016.4 0.0
26/05:30am 19.0 - - - - CALM 0 0 0 0 1016.3 1016.3 0.0
26/05:00am 19.2 - - - - CALM 0 4 0 2 1016.0 - 0.0
26/04:30am 19.5 - - - - CALM 0 0 0 0 1016.0 1016.0 0.0
26/04:00am 20.0 - - - - S 4 6 2 3 1015.9 - 0.0
26/03:30am 20.7 - - - - SSE 4 6 2 3 1015.9 1015.9 0.0
26/03:00am 20.4 - - - - SSE 2 4 1 2 1015.9 1015.9 0.0
26/02:30am 19.0 - - - - CALM 0 0 0 0 1015.8 1015.8 0.0
26/02:00am 18.5 - - - - CALM 0 0 0 0 1016.0 - 0.0
26/01:30am 18.5 - - - - CALM 0 0 0 0 1016.2 1016.2 0.0
26/01:00am 18.8 - - - - CALM 0 0 0 0 1016.3 - 0.0
26/12:30am 18.9 - - - - CALM 0 0 0 0 1016.5 1016.5 0.0
26/12:00am 19.2 - - - - CALM 0 0 0 0 1016.5 1016.5 0.0
 
Date/Time
CST
Temp
°C
App
Temp
°C
Dew
Point
Rel
Hum
%
Delta-T
°C
Wind Press
QNH
hPa
Press
MSL
hPa
Rain
since 9 am
mm
Dir
 
Spd
km/h
Gust
km/h
Spd
kts
Gust
kts
25/11:30pm 19.6 - - - - CALM 0 0 0 0 1016.5 1016.5 0.0
25/11:00pm 19.8 - - - - CALM 0 0 0 0 1016.8 - 0.0
25/10:30pm 19.9 - - - - CALM 0 0 0 0 1017.2 1017.2 0.0
25/10:00pm 20.3 - - - - CALM 0 0 0 0 1017.0 - 0.0
25/09:30pm 20.7 - - - - CALM 0 0 0 0 1016.7 1016.7 0.0
25/09:00pm 21.3 - - - - CALM 0 0 0 0 1016.4 1016.4 0.0
25/08:30pm 22.2 - - - - CALM 0 0 0 0 1016.1 1016.1 0.0
25/08:00pm 23.0 - - - - CALM 0 0 0 0 1015.7 - 0.0

Other Formats:

Comma delimited format used in spreadsheet applications
http://www.bom.gov.au/fwo/IDD60801/IDD60801.94109.axf

JavaScript Object Notation format (JSON) in row-major order
http://www.bom.gov.au/fwo/IDD60801/IDD60801.94109.json